sensor_id;sensor_type;location;lat;lon;timestamp;P1;durP1;ratioP1;P2;durP2;ratioP2
18021;SDS011;9136;48.822;7.966;2022-11-21T00:02:04;20.27;;;19.37;;
18021;SDS011;9136;48.822;7.966;2022-11-21T00:04:52;14.53;;;13.93;;
18021;SDS011;9136;48.822;7.966;2022-11-21T00:07:41;17.60;;;16.83;;
18021;SDS011;9136;48.822;7.966;2022-11-21T00:10:30;16.13;;;15.43;;
18021;SDS011;9136;48.822;7.966;2022-11-21T00:13:19;18.30;;;17.50;;
18021;SDS011;9136;48.822;7.966;2022-11-21T00:16:08;18.97;;;18.17;;
18021;SDS011;9136;48.822;7.966;2022-11-21T00:18:58;17.47;;;16.70;;
18021;SDS011;9136;48.822;7.966;2022-11-21T00:21:46;18.90;;;18.10;;
18021;SDS011;9136;48.822;7.966;2022-11-21T00:24:36;18.03;;;17.23;;
18021;SDS011;9136;48.822;7.966;2022-11-21T00:27:24;20.60;;;19.63;;
18021;SDS011;9136;48.822;7.966;2022-11-21T00:30:12;23.20;;;22.20;;
18021;SDS011;9136;48.822;7.966;2022-11-21T00:33:00;22.07;;;21.07;;
18021;SDS011;9136;48.822;7.966;2022-11-21T00:35:48;20.50;;;19.60;;
18021;SDS011;9136;48.822;7.966;2022-11-21T00:38:36;19.53;;;18.70;;
18021;SDS011;9136;48.822;7.966;2022-11-21T00:41:25;22.10;;;21.10;;
18021;SDS011;9136;48.822;7.966;2022-11-21T00:44:13;19.60;;;18.73;;
18021;SDS011;9136;48.822;7.966;2022-11-21T00:47:01;20.87;;;19.97;;
18021;SDS011;9136;48.822;7.966;2022-11-21T00:49:49;18.83;;;18.03;;
18021;SDS011;9136;48.822;7.966;2022-11-21T00:52:37;21.37;;;20.47;;
18021;SDS011;9136;48.822;7.966;2022-11-21T00:55:24;21.67;;;20.70;;
18021;SDS011;9136;48.822;7.966;2022-11-21T00:58:14;20.17;;;19.27;;
18021;SDS011;9136;48.822;7.966;2022-11-21T01:01:02;20.10;;;19.20;;
18021;SDS011;9136;48.822;7.966;2022-11-21T01:03:52;18.77;;;17.97;;
18021;SDS011;9136;48.822;7.966;2022-11-21T01:06:40;20.00;;;19.10;;
18021;SDS011;9136;48.822;7.966;2022-11-21T01:09:28;19.57;;;18.67;;
18021;SDS011;9136;48.822;7.966;2022-11-21T01:12:16;17.53;;;16.80;;
18021;SDS011;9136;48.822;7.966;2022-11-21T01:15:07;19.17;;;18.27;;
18021;SDS011;9136;48.822;7.966;2022-11-21T01:17:56;20.73;;;19.83;;
18021;SDS011;9136;48.822;7.966;2022-11-21T01:20:44;18.43;;;17.43;;
18021;SDS011;9136;48.822;7.966;2022-11-21T01:23:32;16.93;;;16.23;;
18021;SDS011;9136;48.822;7.966;2022-11-21T01:26:21;16.17;;;15.47;;
18021;SDS011;9136;48.822;7.966;2022-11-21T01:29:11;17.27;;;16.53;;
18021;SDS011;9136;48.822;7.966;2022-11-21T01:32:00;16.77;;;16.07;;
18021;SDS011;9136;48.822;7.966;2022-11-21T01:34:48;20.37;;;19.47;;
18021;SDS011;9136;48.822;7.966;2022-11-21T01:37:35;17.37;;;16.63;;
18021;SDS011;9136;48.822;7.966;2022-11-21T01:40:23;17.70;;;16.90;;
18021;SDS011;9136;48.822;7.966;2022-11-21T01:43:11;19.30;;;18.50;;
18021;SDS011;9136;48.822;7.966;2022-11-21T01:46:02;19.23;;;18.43;;
18021;SDS011;9136;48.822;7.966;2022-11-21T01:48:59;17.57;;;16.80;;
18021;SDS011;9136;48.822;7.966;2022-11-21T01:51:50;17.27;;;16.57;;
18021;SDS011;9136;48.822;7.966;2022-11-21T01:54:42;19.70;;;18.83;;
18021;SDS011;9136;48.822;7.966;2022-11-21T01:57:33;18.03;;;17.23;;
18021;SDS011;9136;48.822;7.966;2022-11-21T02:00:27;22.17;;;21.17;;
18021;SDS011;9136;48.822;7.966;2022-11-21T02:03:20;15.97;;;15.27;;
18021;SDS011;9136;48.822;7.966;2022-11-21T02:06:14;18.23;;;17.43;;
18021;SDS011;9136;48.822;7.966;2022-11-21T02:09:02;17.13;;;16.33;;
18021;SDS011;9136;48.822;7.966;2022-11-21T02:11:53;17.57;;;16.80;;
18021;SDS011;9136;48.822;7.966;2022-11-21T02:14:44;17.77;;;16.97;;
18021;SDS011;9136;48.822;7.966;2022-11-21T02:17:33;18.20;;;17.40;;
18021;SDS011;9136;48.822;7.966;2022-11-21T02:20:21;17.27;;;16.57;;
18021;SDS011;9136;48.822;7.966;2022-11-21T02:23:14;19.20;;;18.40;;
18021;SDS011;9136;48.822;7.966;2022-11-21T02:26:11;18.50;;;17.70;;
18021;SDS011;9136;48.822;7.966;2022-11-21T02:29:00;19.73;;;18.87;;
18021;SDS011;9136;48.822;7.966;2022-11-21T02:31:47;18.53;;;17.73;;
18021;SDS011;9136;48.822;7.966;2022-11-21T02:34:36;17.43;;;16.67;;
18021;SDS011;9136;48.822;7.966;2022-11-21T02:37:23;17.80;;;17.00;;
18021;SDS011;9136;48.822;7.966;2022-11-21T02:40:13;17.73;;;16.97;;
18021;SDS011;9136;48.822;7.966;2022-11-21T02:43:07;17.30;;;16.60;;
18021;SDS011;9136;48.822;7.966;2022-11-21T02:45:59;18.47;;;17.67;;
18021;SDS011;9136;48.822;7.966;2022-11-21T02:48:47;17.37;;;16.63;;
18021;SDS011;9136;48.822;7.966;2022-11-21T02:51:35;17.47;;;16.67;;
18021;SDS011;9136;48.822;7.966;2022-11-21T02:54:23;17.00;;;16.30;;
18021;SDS011;9136;48.822;7.966;2022-11-21T02:57:10;17.90;;;17.10;;
18021;SDS011;9136;48.822;7.966;2022-11-21T03:00:00;17.13;;;16.43;;
18021;SDS011;9136;48.822;7.966;2022-11-21T03:02:47;16.43;;;15.73;;
18021;SDS011;9136;48.822;7.966;2022-11-21T03:05:36;16.70;;;15.97;;
18021;SDS011;9136;48.822;7.966;2022-11-21T03:08:24;16.10;;;15.40;;
18021;SDS011;9136;48.822;7.966;2022-11-21T03:11:12;17.87;;;17.07;;
18021;SDS011;9136;48.822;7.966;2022-11-21T03:13:59;19.27;;;18.47;;
18021;SDS011;9136;48.822;7.966;2022-11-21T03:16:49;17.87;;;17.07;;
18021;SDS011;9136;48.822;7.966;2022-11-21T03:19:37;19.67;;;18.80;;
18021;SDS011;9136;48.822;7.966;2022-11-21T03:22:24;18.50;;;17.70;;
18021;SDS011;9136;48.822;7.966;2022-11-21T03:25:13;20.40;;;19.50;;
18021;SDS011;9136;48.822;7.966;2022-11-21T03:28:00;17.73;;;16.93;;
18021;SDS011;9136;48.822;7.966;2022-11-21T03:30:48;17.87;;;17.07;;
18021;SDS011;9136;48.822;7.966;2022-11-21T03:33:37;16.47;;;15.77;;
18021;SDS011;9136;48.822;7.966;2022-11-21T03:36:25;17.73;;;16.97;;
18021;SDS011;9136;48.822;7.966;2022-11-21T03:39:13;16.73;;;16.03;;
18021;SDS011;9136;48.822;7.966;2022-11-21T03:42:00;20.60;;;19.70;;
18021;SDS011;9136;48.822;7.966;2022-11-21T03:44:49;17.00;;;16.30;;
18021;SDS011;9136;48.822;7.966;2022-11-21T03:47:37;18.53;;;17.73;;
18021;SDS011;9136;48.822;7.966;2022-11-21T03:50:26;18.53;;;17.73;;
18021;SDS011;9136;48.822;7.966;2022-11-21T03:53:13;18.97;;;18.17;;
18021;SDS011;9136;48.822;7.966;2022-11-21T03:56:01;20.33;;;19.43;;
18021;SDS011;9136;48.822;7.966;2022-11-21T03:58:49;21.40;;;20.50;;
18021;SDS011;9136;48.822;7.966;2022-11-21T04:01:37;19.83;;;18.93;;
18021;SDS011;9136;48.822;7.966;2022-11-21T04:04:25;18.70;;;17.90;;
18021;SDS011;9136;48.822;7.966;2022-11-21T04:07:14;18.60;;;17.80;;
18021;SDS011;9136;48.822;7.966;2022-11-21T04:10:03;19.50;;;18.60;;
18021;SDS011;9136;48.822;7.966;2022-11-21T04:12:51;17.97;;;17.17;;
18021;SDS011;9136;48.822;7.966;2022-11-21T04:15:39;20.50;;;19.60;;
18021;SDS011;9136;48.822;7.966;2022-11-21T04:18:27;20.83;;;19.93;;
18021;SDS011;9136;48.822;7.966;2022-11-21T04:21:15;18.60;;;17.70;;
18021;SDS011;9136;48.822;7.966;2022-11-21T04:24:05;21.70;;;20.77;;
18021;SDS011;9136;48.822;7.966;2022-11-21T04:26:53;21.40;;;20.50;;
18021;SDS011;9136;48.822;7.966;2022-11-21T04:29:41;20.47;;;19.57;;
18021;SDS011;9136;48.822;7.966;2022-11-21T04:32:29;18.50;;;17.70;;
18021;SDS011;9136;48.822;7.966;2022-11-21T04:35:16;19.23;;;18.43;;
18021;SDS011;9136;48.822;7.966;2022-11-21T04:38:04;19.40;;;18.60;;
18021;SDS011;9136;48.822;7.966;2022-11-21T04:40:54;18.77;;;17.97;;
18021;SDS011;9136;48.822;7.966;2022-11-21T04:43:42;20.60;;;19.70;;
18021;SDS011;9136;48.822;7.966;2022-11-21T04:46:30;18.40;;;17.60;;
18021;SDS011;9136;48.822;7.966;2022-11-21T04:49:18;19.63;;;18.77;;
18021;SDS011;9136;48.822;7.966;2022-11-21T04:52:05;17.90;;;17.10;;
18021;SDS011;9136;48.822;7.966;2022-11-21T04:54:53;18.40;;;17.60;;
18021;SDS011;9136;48.822;7.966;2022-11-21T04:57:42;22.67;;;21.67;;
18021;SDS011;9136;48.822;7.966;2022-11-21T05:00:30;20.07;;;19.17;;
18021;SDS011;9136;48.822;7.966;2022-11-21T05:03:18;22.70;;;21.70;;
18021;SDS011;9136;48.822;7.966;2022-11-21T05:06:06;19.37;;;18.57;;
18021;SDS011;9136;48.822;7.966;2022-11-21T05:08:54;22.33;;;21.33;;
18021;SDS011;9136;48.822;7.966;2022-11-21T05:11:42;20.43;;;19.53;;
18021;SDS011;9136;48.822;7.966;2022-11-21T05:14:48;21.50;;;20.60;;
18021;SDS011;9136;48.822;7.966;2022-11-21T05:17:36;19.23;;;18.40;;
18021;SDS011;9136;48.822;7.966;2022-11-21T05:20:24;20.63;;;19.73;;
18021;SDS011;9136;48.822;7.966;2022-11-21T05:23:12;22.13;;;21.13;;
18021;SDS011;9136;48.822;7.966;2022-11-21T05:26:00;20.37;;;19.47;;
18021;SDS011;9136;48.822;7.966;2022-11-21T05:28:47;21.93;;;20.97;;
18021;SDS011;9136;48.822;7.966;2022-11-21T05:31:37;23.40;;;22.37;;
18021;SDS011;9136;48.822;7.966;2022-11-21T05:34:25;22.50;;;21.40;;
18021;SDS011;9136;48.822;7.966;2022-11-21T05:37:13;22.67;;;21.67;;
18021;SDS011;9136;48.822;7.966;2022-11-21T05:40:01;21.73;;;20.80;;
18021;SDS011;9136;48.822;7.966;2022-11-21T05:42:48;22.10;;;21.10;;
18021;SDS011;9136;48.822;7.966;2022-11-21T05:45:53;22.30;;;21.20;;
18021;SDS011;9136;48.822;7.966;2022-11-21T05:48:42;24.67;;;22.87;;
18021;SDS011;9136;48.822;7.966;2022-11-21T05:51:31;22.17;;;21.10;;
18021;SDS011;9136;48.822;7.966;2022-11-21T05:54:19;21.10;;;20.20;;
18021;SDS011;9136;48.822;7.966;2022-11-21T05:57:07;21.37;;;20.37;;
18021;SDS011;9136;48.822;7.966;2022-11-21T05:59:54;22.37;;;21.37;;
18021;SDS011;9136;48.822;7.966;2022-11-21T06:02:42;22.47;;;21.47;;
18021;SDS011;9136;48.822;7.966;2022-11-21T06:05:49;22.00;;;21.00;;
18021;SDS011;9136;48.822;7.966;2022-11-21T06:08:38;20.57;;;19.67;;
18021;SDS011;9136;48.822;7.966;2022-11-21T06:11:27;21.53;;;20.63;;
18021;SDS011;9136;48.822;7.966;2022-11-21T06:14:14;19.63;;;18.60;;
18021;SDS011;9136;48.822;7.966;2022-11-21T06:17:02;21.80;;;20.87;;
18021;SDS011;9136;48.822;7.966;2022-11-21T06:19:50;22.13;;;21.13;;
18021;SDS011;9136;48.822;7.966;2022-11-21T06:22:39;21.97;;;21.00;;
18021;SDS011;9136;48.822;7.966;2022-11-21T06:25:27;20.50;;;19.60;;
18021;SDS011;9136;48.822;7.966;2022-11-21T06:28:14;20.63;;;19.73;;
18021;SDS011;9136;48.822;7.966;2022-11-21T06:31:02;21.13;;;20.23;;
18021;SDS011;9136;48.822;7.966;2022-11-21T06:33:50;21.10;;;20.20;;
18021;SDS011;9136;48.822;7.966;2022-11-21T06:36:39;21.23;;;20.33;;
18021;SDS011;9136;48.822;7.966;2022-11-21T06:39:28;21.87;;;20.57;;
18021;SDS011;9136;48.822;7.966;2022-11-21T06:42:16;18.40;;;17.60;;
18021;SDS011;9136;48.822;7.966;2022-11-21T06:45:04;18.47;;;17.67;;
18021;SDS011;9136;48.822;7.966;2022-11-21T06:47:52;22.13;;;21.13;;
18021;SDS011;9136;48.822;7.966;2022-11-21T06:50:40;18.57;;;17.77;;
18021;SDS011;9136;48.822;7.966;2022-11-21T06:53:28;20.67;;;19.77;;
18021;SDS011;9136;48.822;7.966;2022-11-21T06:56:17;19.73;;;18.83;;
18021;SDS011;9136;48.822;7.966;2022-11-21T06:59:05;22.07;;;21.07;;
18021;SDS011;9136;48.822;7.966;2022-11-21T07:01:52;20.67;;;19.77;;
18021;SDS011;9136;48.822;7.966;2022-11-21T07:04:40;19.33;;;18.53;;
18021;SDS011;9136;48.822;7.966;2022-11-21T07:07:28;18.67;;;17.77;;
18021;SDS011;9136;48.822;7.966;2022-11-21T07:10:16;18.70;;;17.90;;
18021;SDS011;9136;48.822;7.966;2022-11-21T07:13:05;19.30;;;18.50;;
18021;SDS011;9136;48.822;7.966;2022-11-21T07:16:08;18.43;;;17.63;;
18021;SDS011;9136;48.822;7.966;2022-11-21T07:18:59;19.80;;;18.93;;
18021;SDS011;9136;48.822;7.966;2022-11-21T07:21:46;21.23;;;20.13;;
18021;SDS011;9136;48.822;7.966;2022-11-21T07:24:34;21.17;;;20.27;;
18021;SDS011;9136;48.822;7.966;2022-11-21T07:27:22;19.53;;;18.70;;
18021;SDS011;9136;48.822;7.966;2022-11-21T07:30:12;18.23;;;17.43;;
18021;SDS011;9136;48.822;7.966;2022-11-21T07:33:00;18.47;;;17.67;;
18021;SDS011;9136;48.822;7.966;2022-11-21T07:35:50;20.87;;;19.97;;
18021;SDS011;9136;48.822;7.966;2022-11-21T07:38:38;19.70;;;18.80;;
18021;SDS011;9136;48.822;7.966;2022-11-21T07:41:26;17.80;;;17.00;;
18021;SDS011;9136;48.822;7.966;2022-11-21T07:44:14;17.97;;;17.17;;
18021;SDS011;9136;48.822;7.966;2022-11-21T07:47:03;19.27;;;18.47;;
18021;SDS011;9136;48.822;7.966;2022-11-21T07:49:51;17.70;;;16.90;;
18021;SDS011;9136;48.822;7.966;2022-11-21T07:52:38;16.47;;;15.77;;
18021;SDS011;9136;48.822;7.966;2022-11-21T07:55:27;18.17;;;17.37;;
18021;SDS011;9136;48.822;7.966;2022-11-21T07:58:16;17.90;;;17.10;;
18021;SDS011;9136;48.822;7.966;2022-11-21T08:01:04;17.70;;;16.90;;
18021;SDS011;9136;48.822;7.966;2022-11-21T08:03:54;18.43;;;17.63;;
18021;SDS011;9136;48.822;7.966;2022-11-21T08:06:42;19.33;;;18.53;;
18021;SDS011;9136;48.822;7.966;2022-11-21T08:09:29;20.13;;;19.07;;
18021;SDS011;9136;48.822;7.966;2022-11-21T08:12:18;19.10;;;18.30;;
18021;SDS011;9136;48.822;7.966;2022-11-21T08:15:06;21.13;;;20.20;;
18021;SDS011;9136;48.822;7.966;2022-11-21T08:17:55;16.97;;;16.27;;
18021;SDS011;9136;48.822;7.966;2022-11-21T08:20:44;19.00;;;18.13;;
18021;SDS011;9136;48.822;7.966;2022-11-21T08:23:32;17.73;;;16.93;;
18021;SDS011;9136;48.822;7.966;2022-11-21T08:26:19;19.17;;;18.37;;
18021;SDS011;9136;48.822;7.966;2022-11-21T08:29:08;19.10;;;18.30;;
18021;SDS011;9136;48.822;7.966;2022-11-21T08:31:56;19.60;;;18.73;;
18021;SDS011;9136;48.822;7.966;2022-11-21T08:34:44;17.57;;;16.80;;
18021;SDS011;9136;48.822;7.966;2022-11-21T08:37:34;18.73;;;17.83;;
18021;SDS011;9136;48.822;7.966;2022-11-21T08:40:22;20.63;;;19.73;;
18021;SDS011;9136;48.822;7.966;2022-11-21T08:43:09;20.17;;;19.27;;
18021;SDS011;9136;48.822;7.966;2022-11-21T08:45:57;19.23;;;18.43;;
18021;SDS011;9136;48.822;7.966;2022-11-21T08:48:45;17.07;;;16.37;;
18021;SDS011;9136;48.822;7.966;2022-11-21T08:51:33;18.87;;;18.07;;
18021;SDS011;9136;48.822;7.966;2022-11-21T08:54:23;21.17;;;20.17;;
18021;SDS011;9136;48.822;7.966;2022-11-21T08:57:13;20.60;;;19.70;;
18021;SDS011;9136;48.822;7.966;2022-11-21T09:00:03;19.30;;;18.50;;
18021;SDS011;9136;48.822;7.966;2022-11-21T09:02:52;19.93;;;19.03;;
18021;SDS011;9136;48.822;7.966;2022-11-21T09:05:40;21.03;;;20.13;;
18021;SDS011;9136;48.822;7.966;2022-11-21T09:08:28;19.13;;;18.33;;
18021;SDS011;9136;48.822;7.966;2022-11-21T09:11:18;18.13;;;17.33;;
18021;SDS011;9136;48.822;7.966;2022-11-21T09:14:06;17.90;;;17.03;;
18021;SDS011;9136;48.822;7.966;2022-11-21T09:17:11;17.83;;;17.03;;
18021;SDS011;9136;48.822;7.966;2022-11-21T09:20:17;18.90;;;18.10;;
18021;SDS011;9136;48.822;7.966;2022-11-21T09:23:05;19.07;;;18.27;;
18021;SDS011;9136;48.822;7.966;2022-11-21T09:25:55;18.67;;;17.77;;
18021;SDS011;9136;48.822;7.966;2022-11-21T09:28:44;18.43;;;17.63;;
18021;SDS011;9136;48.822;7.966;2022-11-21T09:31:32;19.53;;;18.70;;
18021;SDS011;9136;48.822;7.966;2022-11-21T09:34:19;17.60;;;16.80;;
18021;SDS011;9136;48.822;7.966;2022-11-21T09:37:07;18.60;;;17.80;;
18021;SDS011;9136;48.822;7.966;2022-11-21T09:39:55;17.73;;;16.93;;
18021;SDS011;9136;48.822;7.966;2022-11-21T09:42:48;18.30;;;17.50;;
18021;SDS011;9136;48.822;7.966;2022-11-21T09:45:49;19.63;;;18.77;;
18021;SDS011;9136;48.822;7.966;2022-11-21T09:48:41;17.73;;;16.93;;
18021;SDS011;9136;48.822;7.966;2022-11-21T09:51:34;17.20;;;16.10;;
18021;SDS011;9136;48.822;7.966;2022-11-21T09:54:27;17.43;;;16.67;;
18021;SDS011;9136;48.822;7.966;2022-11-21T09:57:20;17.67;;;16.87;;
18021;SDS011;9136;48.822;7.966;2022-11-21T10:00:23;15.80;;;15.10;;
18021;SDS011;9136;48.822;7.966;2022-11-21T10:03:12;15.90;;;15.20;;
18021;SDS011;9136;48.822;7.966;2022-11-21T10:06:01;15.50;;;14.80;;
18021;SDS011;9136;48.822;7.966;2022-11-21T10:08:54;18.07;;;17.27;;
18021;SDS011;9136;48.822;7.966;2022-11-21T10:11:47;16.03;;;15.27;;
18021;SDS011;9136;48.822;7.966;2022-11-21T10:15:02;19.17;;;18.27;;
18021;SDS011;9136;48.822;7.966;2022-11-21T10:18:08;15.20;;;14.53;;
18021;SDS011;9136;48.822;7.966;2022-11-21T10:21:24;17.13;;;16.43;;
18021;SDS011;9136;48.822;7.966;2022-11-21T10:24:27;17.87;;;17.07;;
18021;SDS011;9136;48.822;7.966;2022-11-21T10:27:28;15.07;;;14.43;;
18021;SDS011;9136;48.822;7.966;2022-11-21T10:30:21;15.13;;;14.43;;
18021;SDS011;9136;48.822;7.966;2022-11-21T10:33:10;14.90;;;14.30;;
18021;SDS011;9136;48.822;7.966;2022-11-21T10:36:04;14.47;;;13.87;;
18021;SDS011;9136;48.822;7.966;2022-11-21T10:38:59;17.63;;;16.37;;
18021;SDS011;9136;48.822;7.966;2022-11-21T10:41:53;15.93;;;15.23;;
18021;SDS011;9136;48.822;7.966;2022-11-21T10:44:47;16.27;;;15.57;;
18021;SDS011;9136;48.822;7.966;2022-11-21T10:47:52;14.50;;;13.90;;
18021;SDS011;9136;48.822;7.966;2022-11-21T10:50:41;17.57;;;15.03;;
18021;SDS011;9136;48.822;7.966;2022-11-21T10:53:44;14.87;;;14.27;;
18021;SDS011;9136;48.822;7.966;2022-11-21T10:56:49;16.50;;;15.80;;
18021;SDS011;9136;48.822;7.966;2022-11-21T10:59:42;16.00;;;15.30;;
18021;SDS011;9136;48.822;7.966;2022-11-21T11:02:58;14.70;;;14.10;;
18021;SDS011;9136;48.822;7.966;2022-11-21T11:05:53;15.73;;;14.83;;
18021;SDS011;9136;48.822;7.966;2022-11-21T11:08:50;17.07;;;16.27;;
18021;SDS011;9136;48.822;7.966;2022-11-21T11:11:38;17.20;;;16.43;;
18021;SDS011;9136;48.822;7.966;2022-11-21T11:14:27;15.07;;;14.47;;
18021;SDS011;9136;48.822;7.966;2022-11-21T11:17:27;19.20;;;18.40;;
18021;SDS011;9136;48.822;7.966;2022-11-21T11:23:32;17.60;;;16.80;;
18021;SDS011;9136;48.822;7.966;2022-11-21T11:26:22;14.57;;;13.97;;
18021;SDS011;9136;48.822;7.966;2022-11-21T11:29:12;17.30;;;16.53;;
18021;SDS011;9136;48.822;7.966;2022-11-21T11:32:03;15.73;;;15.03;;
18021;SDS011;9136;48.822;7.966;2022-11-21T11:35:03;14.93;;;14.23;;
18021;SDS011;9136;48.822;7.966;2022-11-21T11:38:00;16.10;;;15.37;;
18021;SDS011;9136;48.822;7.966;2022-11-21T11:40:49;15.20;;;14.50;;
18021;SDS011;9136;48.822;7.966;2022-11-21T11:43:39;14.60;;;14.00;;
18021;SDS011;9136;48.822;7.966;2022-11-21T11:46:54;15.77;;;15.07;;
18021;SDS011;9136;48.822;7.966;2022-11-21T11:50:09;14.20;;;13.60;;
18021;SDS011;9136;48.822;7.966;2022-11-21T11:53:05;15.07;;;14.43;;
18021;SDS011;9136;48.822;7.966;2022-11-21T11:55:58;15.30;;;14.60;;
18021;SDS011;9136;48.822;7.966;2022-11-21T11:58:51;15.77;;;15.07;;
18021;SDS011;9136;48.822;7.966;2022-11-21T12:01:45;15.50;;;14.83;;
18021;SDS011;9136;48.822;7.966;2022-11-21T12:04:39;15.23;;;14.53;;
18021;SDS011;9136;48.822;7.966;2022-11-21T12:07:34;14.83;;;14.23;;
18021;SDS011;9136;48.822;7.966;2022-11-21T12:10:26;14.37;;;13.77;;
18021;SDS011;9136;48.822;7.966;2022-11-21T12:13:17;15.57;;;14.87;;
18021;SDS011;9136;48.822;7.966;2022-11-21T12:16:09;14.60;;;14.00;;
18021;SDS011;9136;48.822;7.966;2022-11-21T12:19:04;14.80;;;13.93;;
18021;SDS011;9136;48.822;7.966;2022-11-21T12:21:58;14.73;;;14.10;;
18021;SDS011;9136;48.822;7.966;2022-11-21T12:24:46;13.13;;;12.53;;
18021;SDS011;9136;48.822;7.966;2022-11-21T12:27:34;13.43;;;12.80;;
18021;SDS011;9136;48.822;7.966;2022-11-21T12:33:36;17.63;;;16.60;;
18021;SDS011;9136;48.822;7.966;2022-11-21T12:36:30;13.80;;;13.20;;
18021;SDS011;9136;48.822;7.966;2022-11-21T12:39:37;14.20;;;13.60;;
18021;SDS011;9136;48.822;7.966;2022-11-21T12:42:52;13.67;;;13.07;;
18021;SDS011;9136;48.822;7.966;2022-11-21T12:45:51;14.97;;;14.27;;
18021;SDS011;9136;48.822;7.966;2022-11-21T12:48:50;15.07;;;14.47;;
18021;SDS011;9136;48.822;7.966;2022-11-21T12:52:04;17.17;;;16.43;;
18021;SDS011;9136;48.822;7.966;2022-11-21T12:55:18;16.67;;;15.80;;
18021;SDS011;9136;48.822;7.966;2022-11-21T12:58:23;16.67;;;15.90;;
18021;SDS011;9136;48.822;7.966;2022-11-21T13:01:15;17.00;;;16.30;;
18021;SDS011;9136;48.822;7.966;2022-11-21T13:04:13;15.37;;;14.67;;
18021;SDS011;9136;48.822;7.966;2022-11-21T13:07:04;16.50;;;15.63;;
18021;SDS011;9136;48.822;7.966;2022-11-21T13:09:53;16.30;;;15.60;;
18021;SDS011;9136;48.822;7.966;2022-11-21T13:12:46;16.70;;;15.87;;
18021;SDS011;9136;48.822;7.966;2022-11-21T13:15:51;15.83;;;15.13;;
18021;SDS011;9136;48.822;7.966;2022-11-21T13:18:44;16.83;;;16.03;;
18021;SDS011;9136;48.822;7.966;2022-11-21T13:21:43;15.80;;;15.10;;
18021;SDS011;9136;48.822;7.966;2022-11-21T13:27:44;13.93;;;13.33;;
18021;SDS011;9136;48.822;7.966;2022-11-21T13:30:32;14.93;;;14.23;;
18021;SDS011;9136;48.822;7.966;2022-11-21T13:36:36;14.90;;;14.20;;
18021;SDS011;9136;48.822;7.966;2022-11-21T13:39:29;15.30;;;14.63;;
18021;SDS011;9136;48.822;7.966;2022-11-21T13:42:18;14.87;;;14.27;;
18021;SDS011;9136;48.822;7.966;2022-11-21T13:45:36;14.70;;;14.07;;
18021;SDS011;9136;48.822;7.966;2022-11-21T13:48:34;16.37;;;15.67;;
18021;SDS011;9136;48.822;7.966;2022-11-21T13:51:46;16.23;;;15.53;;
18021;SDS011;9136;48.822;7.966;2022-11-21T13:58:35;17.43;;;16.63;;
18021;SDS011;9136;48.822;7.966;2022-11-21T14:01:39;16.07;;;15.37;;
18021;SDS011;9136;48.822;7.966;2022-11-21T14:08:11;18.13;;;17.23;;
18021;SDS011;9136;48.822;7.966;2022-11-21T14:11:17;14.63;;;14.03;;
18021;SDS011;9136;48.822;7.966;2022-11-21T14:14:08;15.43;;;14.73;;
18021;SDS011;9136;48.822;7.966;2022-11-21T14:17:00;16.37;;;15.67;;
18021;SDS011;9136;48.822;7.966;2022-11-21T14:20:15;16.00;;;15.30;;
18021;SDS011;9136;48.822;7.966;2022-11-21T14:23:13;16.47;;;15.63;;
18021;SDS011;9136;48.822;7.966;2022-11-21T14:26:03;16.37;;;15.57;;
18021;SDS011;9136;48.822;7.966;2022-11-21T14:32:03;15.50;;;14.80;;
18021;SDS011;9136;48.822;7.966;2022-11-21T14:34:51;17.47;;;16.57;;
18021;SDS011;9136;48.822;7.966;2022-11-21T14:37:39;16.00;;;15.30;;
18021;SDS011;9136;48.822;7.966;2022-11-21T14:40:29;15.70;;;15.00;;
18021;SDS011;9136;48.822;7.966;2022-11-21T14:43:22;17.20;;;16.50;;
18021;SDS011;9136;48.822;7.966;2022-11-21T14:46:18;17.57;;;16.57;;
18021;SDS011;9136;48.822;7.966;2022-11-21T14:49:23;14.70;;;14.07;;
18021;SDS011;9136;48.822;7.966;2022-11-21T14:52:15;16.93;;;16.20;;
18021;SDS011;9136;48.822;7.966;2022-11-21T14:55:05;15.57;;;14.87;;
18021;SDS011;9136;48.822;7.966;2022-11-21T14:58:07;17.43;;;16.63;;
18021;SDS011;9136;48.822;7.966;2022-11-21T15:01:02;16.00;;;15.30;;
18021;SDS011;9136;48.822;7.966;2022-11-21T15:03:55;15.07;;;14.37;;
18021;SDS011;9136;48.822;7.966;2022-11-21T15:06:46;14.80;;;14.20;;
18021;SDS011;9136;48.822;7.966;2022-11-21T15:09:35;16.17;;;15.47;;
18021;SDS011;9136;48.822;7.966;2022-11-21T15:12:25;17.00;;;16.10;;
18021;SDS011;9136;48.822;7.966;2022-11-21T15:15:23;15.57;;;14.87;;
18021;SDS011;9136;48.822;7.966;2022-11-21T15:18:17;16.90;;;16.20;;
18021;SDS011;9136;48.822;7.966;2022-11-21T15:21:12;18.00;;;17.20;;
18021;SDS011;9136;48.822;7.966;2022-11-21T15:24:14;19.47;;;18.57;;
18021;SDS011;9136;48.822;7.966;2022-11-21T15:30:21;16.77;;;15.97;;
18021;SDS011;9136;48.822;7.966;2022-11-21T15:33:14;16.60;;;15.90;;
18021;SDS011;9136;48.822;7.966;2022-11-21T15:36:12;15.80;;;15.00;;
18021;SDS011;9136;48.822;7.966;2022-11-21T15:39:00;17.33;;;16.60;;
18021;SDS011;9136;48.822;7.966;2022-11-21T15:41:52;16.70;;;16.00;;
18021;SDS011;9136;48.822;7.966;2022-11-21T15:44:54;16.07;;;15.37;;
18021;SDS011;9136;48.822;7.966;2022-11-21T15:47:43;16.27;;;15.57;;
18021;SDS011;9136;48.822;7.966;2022-11-21T15:50:31;18.80;;;17.90;;
18021;SDS011;9136;48.822;7.966;2022-11-21T15:53:23;18.43;;;17.23;;
18021;SDS011;9136;48.822;7.966;2022-11-21T15:56:11;18.43;;;17.63;;
18021;SDS011;9136;48.822;7.966;2022-11-21T15:59:00;19.40;;;18.50;;
18021;SDS011;9136;48.822;7.966;2022-11-21T16:01:48;16.33;;;15.63;;
18021;SDS011;9136;48.822;7.966;2022-11-21T16:04:36;17.93;;;17.13;;
18021;SDS011;9136;48.822;7.966;2022-11-21T16:07:26;18.20;;;17.40;;
18021;SDS011;9136;48.822;7.966;2022-11-21T16:10:15;16.47;;;15.77;;
18021;SDS011;9136;48.822;7.966;2022-11-21T16:13:03;16.37;;;15.67;;
18021;SDS011;9136;48.822;7.966;2022-11-21T16:15:51;19.17;;;18.33;;
18021;SDS011;9136;48.822;7.966;2022-11-21T16:18:39;17.10;;;16.40;;
18021;SDS011;9136;48.822;7.966;2022-11-21T16:21:27;18.37;;;17.30;;
18021;SDS011;9136;48.822;7.966;2022-11-21T16:24:14;17.60;;;16.83;;
18021;SDS011;9136;48.822;7.966;2022-11-21T16:27:04;17.03;;;16.30;;
18021;SDS011;9136;48.822;7.966;2022-11-21T16:29:52;18.53;;;17.73;;
18021;SDS011;9136;48.822;7.966;2022-11-21T16:32:40;17.33;;;16.60;;
18021;SDS011;9136;48.822;7.966;2022-11-21T16:35:27;20.07;;;19.17;;
18021;SDS011;9136;48.822;7.966;2022-11-21T16:38:15;17.97;;;17.07;;
18021;SDS011;9136;48.822;7.966;2022-11-21T16:41:03;20.87;;;19.87;;
18021;SDS011;9136;48.822;7.966;2022-11-21T16:43:52;16.80;;;15.90;;
18021;SDS011;9136;48.822;7.966;2022-11-21T16:46:41;18.87;;;17.97;;
18021;SDS011;9136;48.822;7.966;2022-11-21T16:49:30;18.27;;;17.40;;
18021;SDS011;9136;48.822;7.966;2022-11-21T16:52:18;17.37;;;16.57;;
18021;SDS011;9136;48.822;7.966;2022-11-21T16:55:06;18.47;;;17.67;;
18021;SDS011;9136;48.822;7.966;2022-11-21T16:57:54;19.77;;;18.90;;
18021;SDS011;9136;48.822;7.966;2022-11-21T17:00:44;17.17;;;16.40;;
18021;SDS011;9136;48.822;7.966;2022-11-21T17:03:32;17.57;;;16.77;;
18021;SDS011;9136;48.822;7.966;2022-11-21T17:06:20;18.57;;;17.77;;
18021;SDS011;9136;48.822;7.966;2022-11-21T17:09:09;23.20;;;21.80;;
18021;SDS011;9136;48.822;7.966;2022-11-21T17:11:57;19.80;;;18.53;;
18021;SDS011;9136;48.822;7.966;2022-11-21T17:14:47;20.97;;;19.87;;
18021;SDS011;9136;48.822;7.966;2022-11-21T17:17:37;17.63;;;16.73;;
18021;SDS011;9136;48.822;7.966;2022-11-21T17:20:25;17.93;;;17.13;;
18021;SDS011;9136;48.822;7.966;2022-11-21T17:23:12;18.10;;;17.20;;